createdAt,value
2022-09-13T00:00:59.768Z,99.99
2022-09-13T00:01:59.676Z,99.99
2022-09-13T00:02:59.625Z,99.99
2022-09-13T00:03:59.624Z,99.96
2022-09-13T00:04:59.622Z,99.96
2022-09-13T00:05:59.615Z,99.96
2022-09-13T00:06:59.566Z,99.99
2022-09-13T00:07:59.562Z,99.99
2022-09-13T00:08:59.555Z,99.99
2022-09-13T00:09:59.554Z,99.99
2022-09-13T00:10:59.526Z,99.99
2022-09-13T00:11:59.495Z,99.99
2022-09-13T00:12:59.493Z,99.99
2022-09-13T00:13:59.472Z,99.99
2022-09-13T00:14:59.514Z,99.99
2022-09-13T00:15:59.483Z,99.99
2022-09-13T00:16:59.454Z,99.99
2022-09-13T00:17:59.423Z,99.99
2022-09-13T00:18:59.405Z,99.99
2022-09-13T00:19:59.417Z,99.96
2022-09-13T00:20:59.396Z,99.99
2022-09-13T00:21:59.392Z,99.99
2022-09-13T00:22:59.405Z,99.99
2022-09-13T00:23:59.357Z,99.99
2022-09-13T00:24:59.406Z,99.99
2022-09-13T00:25:59.335Z,99.99
2022-09-13T00:26:59.317Z,99.99
2022-09-13T00:27:59.285Z,99.99
2022-09-13T00:28:59.285Z,99.99
2022-09-13T00:29:59.276Z,99.99
2022-09-13T00:30:59.273Z,99.99
2022-09-13T00:31:59.302Z,99.99
2022-09-13T00:32:59.225Z,99.99
2022-09-13T00:33:59.235Z,99.99
2022-09-13T00:34:59.234Z,99.99
2022-09-13T00:36:06.261Z,99.99
2022-09-13T00:36:59.200Z,99.99
2022-09-13T00:37:59.172Z,99.99
2022-09-13T00:38:59.161Z,99.99
2022-09-13T00:39:59.186Z,99.99
2022-09-13T00:40:59.139Z,99.99
2022-09-13T00:41:59.131Z,99.99
2022-09-13T00:42:59.129Z,99.99
2022-09-13T00:43:59.092Z,99.99
2022-09-13T00:44:59.121Z,99.99
2022-09-13T00:45:59.106Z,99.99
2022-09-13T00:46:59.060Z,99.99
2022-09-13T00:47:59.061Z,99.99
2022-09-13T00:48:59.030Z,99.99
2022-09-13T00:49:59.021Z,99.99
2022-09-13T00:50:59.011Z,99.99
2022-09-13T00:51:58.993Z,99.99
2022-09-13T00:52:58.983Z,99.99
2022-09-13T00:53:59.082Z,99.99
2022-09-13T00:54:58.959Z,99.99
2022-09-13T00:55:58.961Z,99.99
2022-09-13T00:56:58.932Z,99.99
2022-09-13T00:57:58.911Z,99.99
2022-09-13T00:58:58.922Z,99.99
2022-09-13T00:59:58.891Z,99.99
2022-09-13T01:00:58.907Z,99.99
2022-09-13T01:01:58.872Z,99.99
2022-09-13T01:02:58.861Z,99.99
2022-09-13T01:03:58.842Z,99.99
2022-09-13T01:04:58.842Z,99.99
2022-09-13T01:05:58.815Z,99.99
2022-09-13T01:06:58.805Z,99.99
2022-09-13T01:07:58.792Z,99.99
2022-09-13T01:08:58.792Z,99.99
2022-09-13T01:09:58.761Z,99.99
2022-09-13T01:10:58.771Z,99.99
2022-09-13T01:11:58.740Z,99.99
2022-09-13T01:12:58.782Z,99.99
2022-09-13T01:13:58.733Z,99.99
2022-09-13T01:14:58.702Z,99.99
2022-09-13T01:15:58.686Z,99.99
2022-09-13T01:16:58.691Z,99.99
2022-09-13T01:17:58.663Z,99.99
2022-09-13T01:18:58.644Z,99.99
2022-09-13T01:19:58.645Z,99.99
2022-09-13T01:20:58.625Z,99.99
2022-09-13T01:21:58.701Z,99.99
2022-09-13T01:22:58.602Z,99.99
2022-09-13T01:23:58.652Z,99.99
2022-09-13T01:24:58.591Z,99.99
2022-09-13T01:25:58.561Z,99.99
2022-09-13T01:26:58.543Z,99.99
2022-09-13T01:27:58.523Z,99.99
2022-09-13T01:28:58.522Z,99.99
2022-09-13T01:29:58.555Z,99.99
2022-09-13T01:30:58.556Z,99.99
2022-09-13T01:31:58.533Z,99.99
2022-09-13T01:32:58.465Z,99.99
2022-09-13T01:33:58.453Z,99.99
2022-09-13T01:34:58.463Z,99.99
2022-09-13T01:35:58.424Z,99.99
2022-09-13T01:36:58.465Z,99.99
2022-09-13T01:37:58.403Z,99.99
2022-09-13T01:38:58.434Z,99.99
2022-09-13T01:39:58.418Z,99.99
2022-09-13T01:41:01.818Z,99.99
2022-09-13T01:41:59.354Z,99.99
2022-09-13T01:42:58.344Z,99.99
2022-09-13T01:43:58.315Z,99.99
2022-09-13T01:44:58.315Z,99.99
2022-09-13T01:45:58.333Z,99.99
2022-09-13T01:46:58.286Z,99.99
2022-09-13T01:47:58.278Z,99.99
2022-09-13T01:48:58.273Z,99.99
2022-09-13T01:49:58.253Z,99.99
2022-09-13T01:50:58.236Z,99.99
2022-09-13T01:51:58.225Z,99.99
2022-09-13T01:52:58.215Z,99.99
2022-09-13T01:53:58.195Z,99.99
2022-09-13T01:54:58.192Z,99.99
2022-09-13T01:55:58.154Z,99.99
2022-09-13T01:56:58.155Z,99.99
2022-09-13T01:57:58.135Z,99.99
2022-09-13T01:58:58.142Z,99.99
2022-09-13T01:59:58.135Z,99.99
2022-09-13T02:00:58.176Z,99.99
2022-09-13T02:01:58.114Z,99.99
2022-09-13T02:02:58.110Z,99.99
2022-09-13T02:03:58.067Z,99.99
2022-09-13T02:04:58.116Z,99.99
2022-09-13T02:05:58.059Z,99.99
2022-09-13T02:06:58.066Z,99.99
2022-09-13T02:07:58.035Z,99.99
2022-09-13T02:08:58.377Z,99.99
2022-09-13T02:09:57.985Z,99.99
2022-09-13T02:10:57.973Z,99.99
2022-09-13T02:11:57.955Z,99.99
2022-09-13T02:12:58.011Z,99.99
2022-09-13T02:13:57.935Z,99.99
2022-09-13T02:14:58.014Z,99.99
2022-09-13T02:15:57.906Z,99.99
2022-09-13T02:16:57.907Z,99.99
2022-09-13T02:17:57.895Z,99.99
2022-09-13T02:18:57.866Z,99.99
2022-09-13T02:19:57.865Z,99.99
2022-09-13T02:20:57.845Z,99.99
2022-09-13T02:21:57.830Z,99.99
2022-09-13T02:22:57.815Z,99.99
2022-09-13T02:23:57.825Z,99.99
2022-09-13T02:24:57.795Z,99.99
2022-09-13T02:25:57.858Z,99.99
2022-09-13T02:26:57.766Z,99.99
2022-09-13T02:27:57.749Z,99.99
2022-09-13T02:28:57.756Z,99.99
2022-09-13T02:29:57.726Z,99.99
2022-09-13T02:30:57.728Z,99.99
2022-09-13T02:31:57.723Z,99.99
2022-09-13T02:32:57.687Z,99.99
2022-09-13T02:33:57.666Z,99.99
2022-09-13T02:34:57.664Z,99.99
2022-09-13T02:35:57.646Z,99.99
2022-09-13T02:36:57.807Z,99.99
2022-09-13T02:37:57.614Z,99.99
2022-09-13T02:38:57.606Z,99.99
2022-09-13T02:39:57.639Z,99.99
2022-09-13T02:40:57.578Z,99.99
2022-09-13T02:41:57.569Z,99.99
2022-09-13T02:42:57.571Z,99.99
2022-09-13T02:43:57.538Z,99.99
2022-09-13T02:44:57.538Z,99.99
2022-09-13T02:45:57.523Z,99.99
2022-09-13T02:46:57.508Z,99.99
2022-09-13T02:47:57.490Z,99.99
2022-09-13T02:48:57.490Z,99.99
2022-09-13T02:49:57.467Z,99.99
2022-09-13T02:50:57.448Z,99.99
2022-09-13T02:51:57.477Z,99.99
2022-09-13T02:52:57.415Z,99.99
2022-09-13T02:53:57.468Z,99.99
2022-09-13T02:54:57.398Z,99.99
2022-09-13T02:55:57.368Z,99.99
2022-09-13T02:56:57.366Z,99.99
2022-09-13T02:57:57.361Z,99.99
2022-09-13T02:58:57.359Z,99.99
2022-09-13T02:59:57.339Z,99.99
2022-09-13T03:00:57.341Z,99.99
2022-09-13T03:01:57.359Z,99.99
2022-09-13T03:02:57.300Z,99.99
2022-09-13T03:03:57.280Z,99.99
2022-09-13T03:04:57.281Z,99.99
2022-09-13T03:05:57.248Z,99.99
2022-09-13T03:06:57.238Z,99.99
2022-09-13T03:07:57.243Z,99.99
2022-09-13T03:08:57.219Z,99.99
2022-09-13T03:09:57.209Z,99.99
2022-09-13T03:10:57.190Z,99.99
2022-09-13T03:11:57.179Z,99.99
2022-09-13T03:12:57.176Z,99.99
2022-09-13T03:13:57.162Z,99.99
2022-09-13T03:14:57.150Z,99.99
2022-09-13T03:15:57.178Z,99.99
2022-09-13T03:16:57.170Z,99.99
2022-09-13T03:17:57.110Z,99.99
2022-09-13T03:18:57.076Z,99.99
2022-09-13T03:19:57.154Z,99.99
2022-09-13T03:20:57.058Z,99.99
2022-09-13T03:21:57.161Z,99.99
2022-09-13T03:22:57.045Z,99.99
2022-09-13T03:23:57.025Z,99.99
2022-09-13T03:24:57.021Z,99.99
2022-09-13T03:25:56.992Z,99.99
2022-09-13T03:26:56.989Z,99.99
2022-09-13T03:27:56.969Z,99.99
2022-09-13T03:28:56.983Z,99.99
2022-09-13T03:29:56.947Z,99.99
2022-09-13T03:30:56.924Z,99.99
2022-09-13T03:31:57.023Z,99.99
2022-09-13T03:32:56.900Z,99.99
2022-09-13T03:33:56.895Z,99.99
2022-09-13T03:34:56.896Z,99.99
2022-09-13T03:35:56.858Z,99.99
2022-09-13T03:36:56.850Z,99.99
2022-09-13T03:37:56.832Z,99.99
2022-09-13T03:38:56.823Z,99.99
2022-09-13T03:39:56.890Z,99.99
2022-09-13T03:40:56.790Z,99.99
2022-09-13T03:41:56.813Z,99.99
2022-09-13T03:42:56.762Z,99.99
2022-09-13T03:43:56.752Z,99.99
2022-09-13T03:44:56.745Z,99.99
2022-09-13T03:45:56.767Z,99.99
2022-09-13T03:46:56.711Z,99.99
2022-09-13T03:47:56.790Z,99.99
2022-09-13T03:48:56.683Z,99.99
2022-09-13T03:49:56.720Z,99.99
2022-09-13T03:50:56.660Z,99.99
2022-09-13T03:51:56.641Z,99.99
2022-09-13T03:52:56.637Z,99.99
2022-09-13T03:53:56.625Z,99.99
2022-09-13T03:54:56.611Z,99.99
2022-09-13T03:55:56.612Z,99.99
2022-09-13T03:56:56.583Z,99.99
2022-09-13T03:57:56.579Z,99.99
2022-09-13T03:58:56.560Z,99.99
2022-09-13T03:59:56.545Z,99.99
2022-09-13T04:00:56.568Z,99.99
2022-09-13T04:01:56.573Z,99.99
2022-09-13T04:02:56.492Z,99.99
2022-09-13T04:03:57.169Z,99.99
2022-09-13T04:04:56.464Z,99.99
2022-09-13T04:05:56.452Z,99.99
2022-09-13T04:06:56.454Z,99.99
2022-09-13T04:07:56.449Z,99.99
2022-09-13T04:08:56.413Z,99.99
2022-09-13T04:09:56.413Z,99.99
2022-09-13T04:10:56.402Z,99.99
2022-09-13T04:11:56.383Z,99.99
2022-09-13T04:12:56.372Z,99.99
2022-09-13T04:13:56.382Z,99.99
2022-09-13T04:14:56.343Z,99.99
2022-09-13T04:15:56.386Z,99.99
2022-09-13T04:16:56.314Z,99.99
2022-09-13T04:17:56.333Z,99.99
2022-09-13T04:18:56.285Z,99.99
2022-09-13T04:19:56.281Z,99.99
2022-09-13T04:20:56.252Z,99.99
2022-09-13T04:21:56.244Z,99.99
2022-09-13T04:22:56.232Z,99.99
2022-09-13T04:23:56.224Z,99.99
2022-09-13T04:25:00.198Z,99.99
2022-09-13T04:25:57.202Z,99.99
2022-09-13T04:26:57.087Z,99.99
2022-09-13T04:27:56.166Z,99.99
2022-09-13T04:28:56.152Z,99.99
2022-09-13T04:29:56.149Z,99.99
2022-09-13T04:30:56.144Z,99.99
2022-09-13T04:31:56.237Z,99.99
2022-09-13T04:32:56.113Z,99.99
2022-09-13T04:33:56.094Z,99.99
2022-09-13T04:34:56.086Z,99.99
2022-09-13T04:35:56.065Z,99.99
2022-09-13T04:36:56.056Z,99.99
2022-09-13T04:37:56.044Z,99.99
2022-09-13T04:38:56.026Z,99.99
2022-09-13T04:39:56.049Z,99.80
2022-09-13T04:40:55.997Z,99.70
2022-09-13T04:41:56.001Z,99.70
2022-09-13T04:42:55.965Z,99.70
2022-09-13T04:43:55.966Z,99.60
2022-09-13T04:44:55.944Z,99.50
2022-09-13T04:45:56.013Z,99.40
2022-09-13T04:46:55.923Z,99.29
2022-09-13T04:47:55.914Z,99.19
2022-09-13T04:48:55.894Z,99.19
2022-09-13T04:49:55.890Z,99.09
2022-09-13T04:50:55.867Z,99.04
2022-09-13T04:51:55.866Z,99.04
2022-09-13T04:52:55.856Z,99.04
2022-09-13T04:53:55.836Z,99.04
2022-09-13T04:54:55.816Z,98.94
2022-09-13T04:55:55.807Z,98.94
2022-09-13T04:56:55.797Z,98.94
2022-09-13T04:57:55.775Z,98.94
2022-09-13T04:58:55.776Z,98.94
2022-09-13T04:59:55.746Z,98.94
2022-09-13T05:00:55.881Z,98.94
2022-09-13T05:01:56.422Z,98.94
2022-09-13T05:02:55.775Z,98.94
2022-09-13T05:03:55.706Z,98.94
2022-09-13T05:04:55.704Z,99.04
2022-09-13T05:05:55.677Z,99.04
2022-09-13T05:06:55.687Z,98.90
2022-09-13T05:07:55.660Z,98.69
2022-09-13T05:08:55.647Z,98.49
2022-09-13T05:09:55.647Z,98.39
2022-09-13T05:10:55.622Z,98.39
2022-09-13T05:11:55.615Z,98.28
2022-09-13T05:12:55.587Z,98.28
2022-09-13T05:13:55.575Z,98.28
2022-09-13T05:14:55.555Z,98.28
2022-09-13T05:15:55.577Z,98.18
2022-09-13T05:16:55.523Z,98.03
2022-09-13T05:17:55.514Z,97.93
2022-09-13T05:18:55.497Z,97.73
2022-09-13T05:19:55.527Z,97.53
2022-09-13T05:20:55.496Z,97.42
2022-09-13T05:21:55.479Z,97.32
2022-09-13T05:22:55.459Z,97.22
2022-09-13T05:23:55.448Z,97.22
2022-09-13T05:24:55.451Z,97.22
2022-09-13T05:25:55.516Z,97.12
2022-09-13T05:26:55.545Z,97.02
2022-09-13T05:27:55.385Z,96.87
2022-09-13T05:28:55.370Z,96.77
2022-09-13T05:29:55.401Z,96.77
2022-09-13T05:30:55.510Z,96.87
2022-09-13T05:31:55.342Z,96.87
2022-09-13T05:32:55.318Z,96.87
2022-09-13T05:33:55.320Z,96.77
2022-09-13T05:34:55.302Z,96.67
2022-09-13T05:35:55.298Z,96.72
2022-09-13T05:36:55.269Z,96.72
2022-09-13T05:37:55.257Z,96.72
2022-09-13T05:39:12.582Z,96.72
2022-09-13T05:40:12.692Z,96.62
2022-09-13T05:40:56.290Z,96.52
2022-09-13T05:41:55.209Z,96.42
2022-09-13T05:42:55.179Z,96.52
2022-09-13T05:43:59.423Z,96.62
2022-09-13T05:44:56.167Z,96.83
2022-09-13T05:45:55.184Z,96.62
2022-09-13T05:46:55.141Z,96.72
2022-09-13T05:47:55.180Z,96.52
2022-09-13T05:48:55.109Z,96.42
2022-09-13T05:50:09.958Z,96.42
2022-09-13T05:50:58.531Z,96.42
2022-09-13T05:51:55.072Z,96.52
2022-09-13T05:52:55.050Z,96.62
2022-09-13T05:53:55.039Z,96.52
2022-09-13T05:54:55.040Z,96.37
2022-09-13T05:55:55.009Z,96.31
2022-09-13T05:56:55.078Z,96.47
2022-09-13T05:57:54.998Z,96.78
2022-09-13T05:58:54.971Z,96.68
2022-09-13T05:59:54.962Z,96.47
2022-09-13T06:00:54.939Z,96.37
2022-09-13T06:01:54.949Z,96.47
2022-09-13T06:02:54.965Z,96.47
2022-09-13T06:03:54.919Z,96.58
2022-09-13T06:04:54.888Z,96.68
2022-09-13T06:05:54.879Z,96.68
2022-09-13T06:06:54.862Z,97.08
2022-09-13T06:07:54.849Z,96.88
2022-09-13T06:08:54.834Z,96.88
2022-09-13T06:09:54.859Z,96.98
2022-09-13T06:10:54.809Z,97.08
2022-09-13T06:11:54.800Z,97.34
2022-09-13T06:12:54.778Z,97.14
2022-09-13T06:13:54.794Z,96.94
2022-09-13T06:14:54.831Z,96.94
2022-09-13T06:15:54.801Z,97.14
2022-09-13T06:16:54.720Z,97.14
2022-09-13T06:17:54.720Z,96.63
2022-09-13T06:18:54.702Z,96.73
2022-09-13T06:19:54.693Z,96.63
2022-09-13T06:20:54.692Z,97.04
2022-09-13T06:21:54.666Z,97.55
2022-09-13T06:22:54.651Z,97.75
2022-09-13T06:23:54.634Z,97.85
2022-09-13T06:24:54.621Z,98.05
2022-09-13T06:25:54.611Z,98.26
2022-09-13T06:26:54.608Z,98.56
2022-09-13T06:27:54.582Z,98.77
2022-09-13T06:28:54.581Z,98.86
2022-09-13T06:29:54.562Z,98.56
2022-09-13T06:30:54.588Z,98.16
2022-09-13T06:31:54.605Z,97.96
2022-09-13T06:32:54.521Z,98.00
2022-09-13T06:33:54.504Z,97.80
2022-09-13T06:34:54.483Z,98.00
2022-09-13T06:35:54.472Z,98.10
2022-09-13T06:36:54.462Z,98.20
2022-09-13T06:38:02.304Z,98.30
2022-09-13T06:38:54.451Z,98.61
2022-09-13T06:39:54.489Z,98.91
2022-09-13T06:40:54.423Z,99.22
2022-09-13T06:41:54.409Z,99.52
2022-09-13T06:42:54.403Z,99.42
2022-09-13T06:43:54.424Z,99.32
2022-09-13T06:44:54.369Z,99.42
2022-09-13T06:45:54.431Z,99.52
2022-09-13T06:46:54.343Z,99.83
2022-09-13T06:47:54.322Z,99.83
2022-09-13T06:48:54.292Z,99.52
2022-09-13T06:49:54.313Z,99.83
2022-09-13T06:50:54.313Z,99.88
2022-09-13T06:51:54.272Z,99.99
2022-09-13T06:52:54.242Z,99.99
2022-09-13T06:53:54.231Z,99.99
2022-09-13T06:54:54.223Z,99.99
2022-09-13T06:55:54.216Z,99.99
2022-09-13T06:56:54.225Z,99.99
2022-09-13T06:57:54.206Z,99.99
2022-09-13T06:58:54.175Z,99.99
2022-09-13T06:59:54.168Z,99.99
2022-09-13T07:00:56.187Z,99.99
2022-09-13T07:01:54.177Z,99.99
2022-09-13T07:02:54.149Z,99.99
2022-09-13T07:03:54.102Z,99.99
2022-09-13T07:04:54.092Z,99.99
2022-09-13T07:05:54.072Z,99.99
2022-09-13T07:06:54.085Z,99.99
2022-09-13T07:07:54.083Z,99.84
2022-09-13T07:08:54.053Z,99.53
2022-09-13T07:09:54.038Z,99.53
2022-09-13T07:10:54.033Z,99.49
2022-09-13T07:11:54.004Z,99.49
2022-09-13T07:12:53.996Z,99.28
2022-09-13T07:13:53.995Z,98.93
2022-09-13T07:14:53.975Z,98.83
2022-09-13T07:15:53.997Z,98.63
2022-09-13T07:16:53.938Z,98.12
2022-09-13T07:17:54.119Z,98.02
2022-09-13T07:18:53.944Z,98.02
2022-09-13T07:19:53.912Z,97.71
2022-09-13T07:20:55.603Z,97.61
2022-09-13T07:21:53.873Z,97.67
2022-09-13T07:22:53.874Z,97.56
2022-09-13T07:23:53.842Z,97.26
2022-09-13T07:24:53.832Z,97.47
2022-09-13T07:25:53.823Z,97.26
2022-09-13T07:26:53.805Z,97.06
2022-09-13T07:27:53.806Z,96.91
2022-09-13T07:28:53.807Z,97.02
2022-09-13T07:29:53.772Z,97.02
2022-09-13T07:30:53.952Z,96.81
2022-09-13T07:31:53.745Z,96.61
2022-09-13T07:32:53.726Z,96.71
2022-09-13T07:33:53.759Z,96.87
2022-09-13T07:34:53.709Z,96.66
2022-09-13T07:35:53.688Z,96.46
2022-09-13T07:36:53.688Z,96.20
2022-09-13T07:37:53.664Z,96.20
2022-09-13T07:38:53.652Z,96.30
2022-09-13T07:39:53.801Z,96.30
2022-09-13T07:40:53.627Z,96.61
2022-09-13T07:41:53.809Z,96.61
2022-09-13T07:42:53.593Z,96.71
2022-09-13T07:43:53.585Z,96.61
2022-09-13T07:44:53.638Z,96.71
2022-09-13T07:45:53.604Z,96.41
2022-09-13T07:46:53.577Z,96.41
2022-09-13T07:47:53.538Z,96.71
2022-09-13T07:48:53.558Z,96.61
2022-09-13T07:49:53.519Z,96.20
2022-09-13T07:50:53.549Z,96.51
2022-09-13T07:51:53.498Z,96.81
2022-09-13T07:52:53.457Z,97.02
2022-09-13T07:53:57.045Z,97.06
2022-09-13T07:54:53.499Z,97.11
2022-09-13T07:55:53.447Z,97.11
2022-09-13T07:56:53.427Z,97.11
2022-09-13T07:57:53.416Z,97.02
2022-09-13T07:58:53.379Z,97.11
2022-09-13T07:59:53.378Z,96.51
2022-09-13T08:00:53.360Z,96.81
2022-09-13T08:01:53.470Z,97.02
2022-09-13T08:02:53.329Z,96.81
2022-09-13T08:03:53.330Z,96.41
2022-09-13T08:04:53.302Z,96.10
2022-09-13T08:05:53.350Z,96.26
2022-09-13T08:06:53.300Z,96.15
2022-09-13T08:07:53.267Z,95.75
2022-09-13T08:08:53.253Z,95.65
2022-09-13T08:09:53.248Z,95.95
2022-09-13T08:10:53.220Z,96.11
2022-09-13T08:11:53.453Z,95.81
2022-09-13T08:12:53.198Z,95.30
2022-09-13T08:13:53.211Z,95.61
2022-09-13T08:14:53.181Z,95.50
2022-09-13T08:15:53.224Z,94.90
2022-09-13T08:16:53.148Z,94.85
2022-09-13T08:17:53.145Z,94.85
2022-09-13T08:18:54.852Z,94.71
2022-09-13T08:19:53.146Z,94.50
2022-09-13T08:20:53.097Z,94.15
2022-09-13T08:21:53.100Z,93.15
2022-09-13T08:22:53.067Z,92.84
2022-09-13T08:23:53.068Z,92.84
2022-09-13T08:24:53.075Z,92.60
2022-09-13T08:25:53.050Z,92.60
2022-09-13T08:26:53.025Z,92.80
2022-09-13T08:27:53.000Z,92.19
2022-09-13T08:28:52.992Z,92.29
2022-09-13T08:29:52.971Z,92.29
2022-09-13T08:30:53.041Z,91.89
2022-09-13T08:31:52.958Z,92.05
2022-09-13T08:32:52.954Z,91.85
2022-09-13T08:33:53.078Z,91.44
2022-09-13T08:34:52.929Z,91.74
2022-09-13T08:35:52.920Z,91.94
2022-09-13T08:36:52.909Z,91.85
2022-09-13T08:37:52.865Z,91.90
2022-09-13T08:38:52.862Z,91.09
2022-09-13T08:39:52.894Z,90.69
2022-09-13T08:40:52.864Z,90.79
2022-09-13T08:41:52.963Z,90.79
2022-09-13T08:42:52.816Z,90.89
2022-09-13T08:43:52.803Z,90.79
2022-09-13T08:44:52.784Z,91.05
2022-09-13T08:45:52.823Z,90.95
2022-09-13T08:46:52.767Z,90.79
2022-09-13T08:47:52.752Z,91.05
2022-09-13T08:48:52.724Z,90.85
2022-09-13T08:49:52.724Z,90.99
2022-09-13T08:50:52.714Z,91.30
2022-09-13T08:51:52.713Z,91.70
2022-09-13T08:52:52.681Z,90.89
2022-09-13T08:53:52.664Z,91.80
2022-09-13T08:54:57.493Z,91.60
2022-09-13T08:55:53.662Z,91.70
2022-09-13T08:56:52.711Z,91.15
2022-09-13T08:57:52.666Z,90.75
2022-09-13T08:58:52.635Z,90.69
2022-09-13T08:59:52.599Z,90.39
2022-09-13T09:00:52.598Z,90.69
2022-09-13T09:01:52.622Z,91.30
2022-09-13T09:02:52.608Z,90.39
2022-09-13T09:03:52.545Z,90.89
2022-09-13T09:04:52.527Z,90.34
2022-09-13T09:05:52.524Z,90.75
2022-09-13T09:06:56.129Z,90.04
2022-09-13T09:07:53.475Z,90.04
2022-09-13T09:08:52.465Z,89.34
2022-09-13T09:09:52.448Z,89.64
2022-09-13T09:10:52.448Z,89.37
2022-09-13T09:11:52.447Z,90.69
2022-09-13T09:12:52.429Z,90.99
2022-09-13T09:13:52.397Z,90.65
2022-09-13T09:14:52.379Z,88.83
2022-09-13T09:15:52.434Z,89.03
2022-09-13T09:16:52.360Z,88.93
2022-09-13T09:17:52.426Z,89.50
2022-09-13T09:18:52.349Z,89.50
2022-09-13T09:19:52.331Z,88.48
2022-09-13T09:20:52.333Z,88.48
2022-09-13T09:21:52.291Z,87.68
2022-09-13T09:22:52.276Z,87.27
2022-09-13T09:23:52.343Z,87.27
2022-09-13T09:24:52.248Z,88.63
2022-09-13T09:25:52.248Z,88.68
2022-09-13T09:26:52.218Z,88.59
2022-09-13T09:27:52.207Z,88.08
2022-09-13T09:28:52.188Z,87.68
2022-09-13T09:29:52.233Z,87.23
2022-09-13T09:30:52.194Z,87.43
2022-09-13T09:31:52.191Z,87.54
2022-09-13T09:32:52.139Z,87.70
2022-09-13T09:33:52.129Z,86.89
2022-09-13T09:34:52.128Z,86.24
2022-09-13T09:35:52.099Z,85.70
2022-09-13T09:36:52.082Z,85.90
2022-09-13T09:37:52.070Z,84.39
2022-09-13T09:38:52.068Z,84.59
2022-09-13T09:39:52.082Z,84.45
2022-09-13T09:40:52.074Z,83.95
2022-09-13T09:41:52.025Z,83.95
2022-09-13T09:42:52.001Z,83.91
2022-09-13T09:43:51.991Z,83.71
2022-09-13T09:44:51.981Z,83.91
2022-09-13T09:45:52.038Z,83.91
2022-09-13T09:46:52.009Z,83.45
2022-09-13T09:47:51.947Z,83.65
2022-09-13T09:48:51.934Z,83.45
2022-09-13T09:49:51.901Z,84.49
2022-09-13T09:50:51.900Z,84.45
2022-09-13T09:51:51.894Z,84.80
2022-09-13T09:52:51.873Z,84.65
2022-09-13T09:53:51.853Z,85.05
2022-09-13T09:54:51.853Z,85.02
2022-09-13T09:55:51.832Z,84.01
2022-09-13T09:56:51.822Z,83.37
2022-09-13T09:57:51.904Z,82.66
2022-09-13T09:58:51.795Z,83.26
2022-09-13T09:59:51.771Z,82.22
2022-09-13T10:00:51.771Z,81.65
2022-09-13T10:01:51.806Z,82.66
2022-09-13T10:02:51.744Z,82.16
2022-09-13T10:03:51.721Z,82.22
2022-09-13T10:04:51.717Z,81.21
2022-09-13T10:05:51.703Z,81.92
2022-09-13T10:06:51.712Z,82.38
2022-09-13T10:07:51.693Z,81.98
2022-09-13T10:08:51.665Z,81.14
2022-09-13T10:09:51.659Z,80.24
2022-09-13T10:10:51.646Z,79.97
2022-09-13T10:11:51.625Z,80.68
2022-09-13T10:12:51.685Z,80.13
2022-09-13T10:13:51.626Z,80.54
2022-09-13T10:14:51.628Z,80.10
2022-09-13T10:15:51.576Z,80.60
2022-09-13T10:16:51.764Z,80.90
2022-09-13T10:17:51.536Z,79.09
2022-09-13T10:18:51.530Z,78.39
2022-09-13T10:19:51.566Z,78.29
2022-09-13T10:20:51.504Z,78.89
2022-09-13T10:21:51.497Z,78.49
2022-09-13T10:22:51.476Z,78.19
2022-09-13T10:23:51.478Z,78.09
2022-09-13T10:24:51.475Z,78.49
2022-09-13T10:25:51.456Z,78.66
2022-09-13T10:26:51.430Z,78.31
2022-09-13T10:27:51.427Z,78.11
2022-09-13T10:28:51.407Z,76.61
2022-09-13T10:29:51.388Z,76.98
2022-09-13T10:30:51.443Z,76.87
2022-09-13T10:31:51.355Z,76.47
2022-09-13T10:32:51.337Z,77.08
2022-09-13T10:33:51.330Z,76.87
2022-09-13T10:34:51.315Z,75.97
2022-09-13T10:35:51.315Z,76.17
2022-09-13T10:36:52.909Z,76.57
2022-09-13T10:37:51.275Z,76.47
2022-09-13T10:38:51.387Z,76.17
2022-09-13T10:39:51.382Z,76.17
2022-09-13T10:40:51.258Z,77.08
2022-09-13T10:41:51.251Z,76.78
2022-09-13T10:42:51.232Z,77.11
2022-09-13T10:43:51.206Z,76.67
2022-09-13T10:44:51.199Z,76.78
2022-09-13T10:45:51.202Z,76.41
2022-09-13T10:46:51.169Z,76.67
2022-09-13T10:47:51.171Z,76.57
2022-09-13T10:48:51.140Z,75.67
2022-09-13T10:49:51.120Z,76.37
2022-09-13T10:50:51.111Z,76.04
2022-09-13T10:51:51.093Z,75.74
2022-09-13T10:52:51.093Z,75.23
2022-09-13T10:53:51.073Z,74.73
2022-09-13T10:54:51.083Z,75.23
2022-09-13T10:55:51.052Z,75.43
2022-09-13T10:56:51.038Z,75.63
2022-09-13T10:57:51.043Z,75.50
2022-09-13T10:58:51.005Z,75.43
2022-09-13T10:59:51.009Z,75.70
2022-09-13T11:00:51.064Z,74.93
2022-09-13T11:01:50.962Z,75.43
2022-09-13T11:02:50.964Z,75.43
2022-09-13T11:03:51.003Z,75.23
2022-09-13T11:04:50.941Z,75.54
2022-09-13T11:05:50.942Z,74.73
2022-09-13T11:06:50.907Z,75.04
2022-09-13T11:07:51.021Z,74.54
2022-09-13T11:08:50.994Z,74.93
2022-09-13T11:09:50.945Z,75.84
2022-09-13T11:10:50.973Z,75.27
2022-09-13T11:11:50.835Z,76.07
2022-09-13T11:12:50.872Z,75.77
2022-09-13T11:13:50.842Z,76.31
2022-09-13T11:14:50.897Z,76.51
2022-09-13T11:15:50.784Z,77.11
2022-09-13T11:16:50.844Z,77.81
2022-09-13T11:17:50.753Z,78.42
2022-09-13T11:18:50.745Z,78.11
2022-09-13T11:19:54.023Z,78.35
2022-09-13T11:20:51.726Z,78.15
2022-09-13T11:21:50.707Z,78.15
2022-09-13T11:22:50.716Z,78.55
2022-09-13T11:23:50.687Z,78.45
2022-09-13T11:24:50.669Z,78.11
2022-09-13T11:25:50.659Z,78.15
2022-09-13T11:26:50.645Z,78.42
2022-09-13T11:27:50.673Z,78.31
2022-09-13T11:28:50.605Z,78.52
2022-09-13T11:29:50.637Z,78.22
2022-09-13T11:30:50.585Z,78.22
2022-09-13T11:31:50.608Z,78.96
2022-09-13T11:32:50.559Z,78.96
2022-09-13T11:33:50.557Z,79.25
2022-09-13T11:34:50.552Z,79.66
2022-09-13T11:35:50.554Z,79.36
2022-09-13T11:36:50.519Z,79.75
2022-09-13T11:37:50.509Z,79.86
2022-09-13T11:38:50.487Z,79.36
2022-09-13T11:39:50.537Z,79.05
2022-09-13T11:40:50.468Z,79.25
2022-09-13T11:41:50.450Z,79.29
2022-09-13T11:42:50.435Z,79.19
2022-09-13T11:43:50.467Z,79.39
2022-09-13T11:44:50.414Z,79.69
2022-09-13T11:45:50.449Z,79.90
2022-09-13T11:46:50.370Z,79.90
2022-09-13T11:47:50.372Z,80.10
2022-09-13T11:48:50.361Z,80.30
2022-09-13T11:49:50.354Z,80.10
2022-09-13T11:50:50.321Z,79.99
2022-09-13T11:51:50.367Z,80.33
2022-09-13T11:52:50.304Z,80.54
2022-09-13T11:53:50.296Z,80.74
2022-09-13T11:54:50.261Z,80.43
2022-09-13T11:55:50.279Z,80.83
2022-09-13T11:56:50.239Z,80.94
2022-09-13T11:57:50.331Z,81.04
2022-09-13T11:58:50.220Z,81.04
2022-09-13T11:59:50.214Z,81.14
2022-09-13T12:00:50.194Z,81.54
2022-09-13T12:01:50.348Z,82.14
2022-09-13T12:02:50.269Z,82.45
2022-09-13T12:03:50.170Z,83.18
2022-09-13T12:05:11.001Z,83.99
2022-09-13T12:05:51.134Z,84.49
2022-09-13T12:06:50.173Z,84.89
2022-09-13T12:07:50.157Z,84.99
2022-09-13T12:08:50.073Z,85.10
2022-09-13T12:09:50.074Z,85.44
2022-09-13T12:10:50.050Z,85.74
2022-09-13T12:11:50.051Z,85.94
2022-09-13T12:12:50.032Z,85.84
2022-09-13T12:13:50.048Z,86.24
2022-09-13T12:14:50.007Z,86.44
2022-09-13T12:15:50.005Z,86.65
2022-09-13T12:16:50.022Z,86.85
2022-09-13T12:17:49.984Z,87.29
2022-09-13T12:18:49.978Z,87.59
2022-09-13T12:19:49.967Z,87.59
2022-09-13T12:20:49.925Z,88.09
2022-09-13T12:21:49.917Z,87.79
2022-09-13T12:22:49.906Z,87.89
2022-09-13T12:23:49.940Z,87.89
2022-09-13T12:24:49.872Z,87.69
2022-09-13T12:25:49.885Z,87.65
2022-09-13T12:26:49.859Z,87.65
2022-09-13T12:27:49.834Z,87.45
2022-09-13T12:28:49.842Z,87.24
2022-09-13T12:29:49.816Z,87.45
2022-09-13T12:30:49.814Z,87.15
2022-09-13T12:31:49.849Z,87.24
2022-09-13T12:32:49.777Z,87.24
2022-09-13T12:33:49.903Z,87.19
2022-09-13T12:34:49.737Z,86.88
2022-09-13T12:35:49.737Z,86.99
2022-09-13T12:36:49.719Z,86.79
2022-09-13T12:37:56.857Z,86.88
2022-09-13T12:38:49.740Z,86.88
2022-09-13T12:39:49.739Z,86.68
2022-09-13T12:40:49.689Z,86.44
2022-09-13T12:41:49.651Z,86.34
2022-09-13T12:42:49.641Z,86.34
2022-09-13T12:43:49.735Z,86.34
2022-09-13T12:44:49.638Z,85.94
2022-09-13T12:45:49.627Z,86.34
2022-09-13T12:46:49.661Z,86.24
2022-09-13T12:47:49.572Z,86.24
2022-09-13T12:48:49.560Z,86.24
2022-09-13T12:49:49.541Z,86.34
2022-09-13T12:50:49.531Z,86.34
2022-09-13T12:51:49.511Z,87.04
2022-09-13T12:52:49.499Z,87.39